createdAt,value
2022-11-09T00:00:16.237Z,95453.00
2022-11-09T00:05:44.162Z,95459.00
2022-11-09T00:11:12.213Z,95445.00
2022-11-09T00:16:40.060Z,95447.00
2022-11-09T00:22:07.922Z,95449.00
2022-11-09T00:27:35.739Z,95454.00
2022-11-09T00:33:03.621Z,95449.00
2022-11-09T00:38:31.377Z,95448.00
2022-11-09T00:43:59.292Z,95442.00
2022-11-09T00:49:27.265Z,95453.00
2022-11-09T00:54:55.389Z,95435.00
2022-11-09T01:00:24.742Z,95436.00
2022-11-09T01:05:54.266Z,95427.00
2022-11-09T01:11:23.644Z,95432.00
2022-11-09T01:16:53.760Z,95433.00
2022-11-09T01:22:21.540Z,95431.00
2022-11-09T01:27:49.501Z,95428.00
2022-11-09T01:33:17.560Z,95428.00
2022-11-09T01:38:46.051Z,95426.00
2022-11-09T01:44:21.169Z,95421.00
2022-11-09T01:50:00.350Z,95425.00
2022-11-09T01:55:28.316Z,95422.00
2022-11-09T02:00:59.087Z,95420.00
2022-11-09T02:06:30.127Z,95411.00
2022-11-09T02:12:00.329Z,95422.00
2022-11-09T02:17:29.545Z,95418.00
2022-11-09T02:22:58.053Z,95407.00
2022-11-09T02:28:27.241Z,95406.00
2022-11-09T02:34:05.212Z,95416.00
2022-11-09T02:39:34.754Z,95412.00
2022-11-09T02:45:02.732Z,95400.00
2022-11-09T02:50:30.962Z,95410.00
2022-11-09T02:56:00.258Z,95408.00
2022-11-09T03:01:28.891Z,95406.00
2022-11-09T03:06:56.861Z,95414.00
2022-11-09T03:12:31.827Z,95416.00
2022-11-09T03:18:12.221Z,95412.00
2022-11-09T03:23:40.576Z,95393.00
2022-11-09T03:29:09.173Z,95408.00
2022-11-09T03:34:37.437Z,95407.00
2022-11-09T03:40:06.718Z,95406.00
2022-11-09T03:45:35.276Z,95408.00
2022-11-09T03:51:03.177Z,95409.00
2022-11-09T03:56:31.097Z,95410.00
2022-11-09T04:01:58.934Z,95406.00
2022-11-09T04:07:26.748Z,95400.00
2022-11-09T04:12:54.975Z,95404.00
2022-11-09T04:18:22.904Z,95404.00
2022-11-09T04:23:50.831Z,95398.00
2022-11-09T04:29:19.822Z,95399.00
2022-11-09T04:34:47.734Z,95400.00
2022-11-09T04:40:15.971Z,95402.00
2022-11-09T04:45:44.297Z,95413.00
2022-11-09T04:51:12.274Z,95414.00
2022-11-09T04:56:40.160Z,95408.00
2022-11-09T05:02:07.982Z,95410.00
2022-11-09T05:07:36.953Z,95412.00
2022-11-09T05:13:11.536Z,95416.00
2022-11-09T05:18:39.318Z,95405.00
2022-11-09T05:24:07.526Z,95419.00
2022-11-09T05:29:35.249Z,95422.00
2022-11-09T05:35:03.012Z,95431.00
2022-11-09T05:40:30.804Z,95417.00
2022-11-09T05:46:02.485Z,95415.00
2022-11-09T05:51:33.203Z,95421.00
2022-11-09T05:57:02.170Z,95409.00
2022-11-09T06:02:33.307Z,95422.00
2022-11-09T06:08:11.200Z,95430.00
2022-11-09T06:13:39.360Z,95431.00
2022-11-09T06:19:07.148Z,95430.00
2022-11-09T06:24:35.005Z,95440.00
2022-11-09T06:30:02.888Z,95446.00
2022-11-09T06:35:30.928Z,95463.00
2022-11-09T06:41:00.115Z,95466.00
2022-11-09T06:46:28.217Z,95481.00
2022-11-09T06:51:56.090Z,95501.00
2022-11-09T06:57:23.901Z,95537.00
2022-11-09T07:02:52.564Z,95553.00
2022-11-09T07:08:20.572Z,95554.00
2022-11-09T07:13:53.437Z,95571.00
2022-11-09T07:19:24.137Z,95590.00
2022-11-09T07:24:51.921Z,95588.00
2022-11-09T07:30:20.044Z,95585.00
2022-11-09T07:35:47.970Z,95589.00
2022-11-09T07:41:15.888Z,95575.00
2022-11-09T07:46:44.727Z,95573.00
2022-11-09T07:52:13.221Z,95578.00
2022-11-09T07:57:40.982Z,95568.00
2022-11-09T08:03:09.242Z,95571.00
2022-11-09T08:08:37.201Z,95584.00
2022-11-09T08:14:04.981Z,95585.00
2022-11-09T08:19:32.835Z,95592.00
2022-11-09T08:25:00.677Z,95589.00
2022-11-09T08:30:28.623Z,95588.00
2022-11-09T08:35:56.720Z,95599.00
2022-11-09T08:41:24.477Z,95609.00
2022-11-09T08:46:52.444Z,95597.00
2022-11-09T08:52:20.398Z,95608.00
2022-11-09T08:57:48.755Z,95622.00
2022-11-09T09:03:17.321Z,95611.00
2022-11-09T09:08:45.020Z,95624.00
2022-11-09T09:14:12.887Z,95622.00
2022-11-09T09:19:40.710Z,95629.00
2022-11-09T09:25:09.345Z,95640.00
2022-11-09T09:30:37.107Z,95633.00
2022-11-09T09:36:05.383Z,95646.00
2022-11-09T09:41:56.486Z,95637.00
2022-11-09T09:47:41.045Z,95631.00
2022-11-09T09:53:48.210Z,95640.00
2022-11-09T09:59:42.928Z,95638.00
2022-11-09T10:05:16.499Z,95643.00
2022-11-09T10:11:17.465Z,95639.00
2022-11-09T10:16:57.744Z,95639.00
2022-11-09T10:23:00.906Z,95640.00
2022-11-09T10:28:47.577Z,95632.00
2022-11-09T10:34:40.535Z,95627.00
2022-11-09T10:40:37.665Z,95618.00
2022-11-09T10:46:24.759Z,95615.00
2022-11-09T10:52:46.164Z,95611.00
2022-11-09T10:58:39.593Z,95600.00
2022-11-09T11:04:28.005Z,95595.00
2022-11-09T11:10:17.404Z,95596.00
2022-11-09T11:16:27.309Z,95587.00
2022-11-09T11:22:19.110Z,95579.00
2022-11-09T11:28:23.760Z,95582.00
2022-11-09T11:34:31.991Z,95564.00
2022-11-09T11:40:33.745Z,95568.00
2022-11-09T11:46:53.743Z,95564.00
2022-11-09T11:53:30.084Z,95570.00
2022-11-09T11:59:32.059Z,95568.00
2022-11-09T12:05:59.329Z,95548.00
2022-11-09T12:12:19.319Z,95545.00
2022-11-09T12:18:35.868Z,95536.00
2022-11-09T12:25:00.233Z,95536.00
2022-11-09T12:31:19.289Z,95539.00
2022-11-09T12:37:19.254Z,95539.00
2022-11-09T12:43:35.108Z,95534.00
2022-11-09T12:49:43.332Z,95531.00
2022-11-09T12:55:44.778Z,95520.00
2022-11-09T13:01:34.404Z,95514.00
2022-11-09T13:07:39.979Z,95514.00
2022-11-09T13:13:26.336Z,95511.00
2022-11-09T13:19:35.329Z,95511.00
2022-11-09T13:25:44.399Z,95519.00
2022-11-09T13:32:13.941Z,95510.00
2022-11-09T13:38:00.047Z,95503.00
2022-11-09T13:43:46.166Z,95498.00
2022-11-09T13:49:48.887Z,95495.00
2022-11-09T13:55:42.920Z,95508.00
2022-11-09T14:01:37.921Z,95515.00
2022-11-09T14:07:35.989Z,95526.00
2022-11-09T14:13:30.528Z,95529.00
2022-11-09T14:19:44.179Z,95525.00
2022-11-09T14:25:35.717Z,95532.00
2022-11-09T14:31:29.418Z,95523.00
2022-11-09T14:37:17.290Z,95524.00
2022-11-09T14:43:43.164Z,95523.00
2022-11-09T14:49:29.985Z,95531.00
2022-11-09T14:55:19.423Z,95528.00
2022-11-09T15:01:29.072Z,95532.00
2022-11-09T15:07:21.932Z,95538.00
2022-11-09T15:13:08.435Z,95544.00
2022-11-09T15:18:55.622Z,95546.00
2022-11-09T15:24:48.307Z,95540.00
2022-11-09T15:30:55.137Z,95549.00
2022-11-09T15:36:45.000Z,95549.00
2022-11-09T15:42:32.440Z,95559.00
2022-11-09T15:48:18.966Z,95545.00
2022-11-09T15:54:05.847Z,95546.00
2022-11-09T15:59:52.189Z,95556.00
2022-11-09T16:05:39.026Z,95562.00
2022-11-09T16:11:25.673Z,95569.00
2022-11-09T16:17:11.933Z,95581.00
2022-11-09T16:22:58.526Z,95592.00
2022-11-09T16:28:45.112Z,95598.00
2022-11-09T16:34:31.540Z,95601.00
2022-11-09T16:40:17.863Z,95614.00
2022-11-09T16:46:05.286Z,95610.00
2022-11-09T16:51:51.548Z,95616.00
2022-11-09T16:57:37.669Z,95627.00
2022-11-09T17:03:23.918Z,95630.00
2022-11-09T17:09:10.141Z,95639.00
2022-11-09T17:14:57.628Z,95648.00
2022-11-09T17:20:46.438Z,95660.00
2022-11-09T17:26:33.340Z,95672.00
2022-11-09T17:32:24.907Z,95669.00
2022-11-09T17:38:11.344Z,95680.00
2022-11-09T17:44:02.045Z,95685.00
2022-11-09T17:49:48.706Z,95692.00
2022-11-09T17:55:38.519Z,95700.00
2022-11-09T18:01:25.260Z,95706.00
2022-11-09T18:07:11.837Z,95715.00
2022-11-09T18:12:57.991Z,95727.00
2022-11-09T18:18:44.709Z,95736.00
2022-11-09T18:24:33.033Z,95743.00
2022-11-09T18:30:19.844Z,95746.00
2022-11-09T18:36:15.657Z,95747.00
2022-11-09T18:42:02.394Z,95747.00
2022-11-09T18:47:49.935Z,95760.00
2022-11-09T18:53:44.988Z,95763.00
2022-11-09T18:59:31.748Z,95765.00
2022-11-09T19:05:17.932Z,95753.00
2022-11-09T19:11:07.328Z,95761.00
2022-11-09T19:16:54.198Z,95762.00
2022-11-09T19:22:40.807Z,95774.00
2022-11-09T19:28:30.482Z,95782.00
2022-11-09T19:34:20.994Z,95785.00
2022-11-09T19:40:08.410Z,95794.00
2022-11-09T19:45:54.931Z,95795.00
2022-11-09T19:51:41.304Z,95802.00
2022-11-09T19:57:28.802Z,95797.00
2022-11-09T20:03:14.924Z,95805.00
2022-11-09T20:09:01.281Z,95805.00
2022-11-09T20:14:47.596Z,95819.00
2022-11-09T20:20:33.833Z,95809.00
2022-11-09T20:26:20.198Z,95815.00
2022-11-09T20:32:10.548Z,95817.00
2022-11-09T20:37:58.485Z,95824.00
2022-11-09T20:43:44.668Z,95829.00
2022-11-09T20:49:30.798Z,95835.00
2022-11-09T20:55:17.009Z,95835.00
2022-11-09T21:01:16.331Z,95850.00
2022-11-09T21:07:03.020Z,95852.00
2022-11-09T21:12:53.449Z,95857.00
2022-11-09T21:18:41.906Z,95862.00
2022-11-09T21:24:47.037Z,95863.00
2022-11-09T21:30:34.262Z,95863.00
2022-11-09T21:36:21.305Z,95870.00
2022-11-09T21:42:08.017Z,95878.00
2022-11-09T21:47:55.482Z,95878.00
2022-11-09T21:53:41.889Z,95891.00
2022-11-09T21:59:28.108Z,95896.00
2022-11-09T22:05:16.588Z,95907.00
2022-11-09T22:11:12.659Z,95907.00
2022-11-09T22:16:59.367Z,95914.00
2022-11-09T22:22:45.821Z,95922.00
2022-11-09T22:28:33.474Z,95932.00
2022-11-09T22:34:20.041Z,95931.00
2022-11-09T22:40:07.496Z,95942.00
2022-11-09T22:45:53.571Z,95942.00
2022-11-09T22:51:39.792Z,95957.00
2022-11-09T22:57:25.859Z,95950.00
2022-11-09T23:03:12.116Z,95949.00
2022-11-09T23:08:58.220Z,95959.00
2022-11-09T23:15:03.466Z,95974.00
2022-11-09T23:20:49.923Z,95974.00
2022-11-09T23:26:36.204Z,95978.00
2022-11-09T23:32:22.161Z,95982.00
2022-11-09T23:38:08.815Z,95978.00
2022-11-09T23:43:56.233Z,95980.00
2022-11-09T23:49:42.819Z,95982.00
2022-11-09T23:55:30.395Z,95988.00
